sensor_id;sensor_type;location;lat;lon;timestamp;P1;durP1;ratioP1;P2;durP2;ratioP2
6217;SDS011;3142;48.206;11.550;2022-09-27T00:00:12;2.70;;;1.73;;
6217;SDS011;3142;48.206;11.550;2022-09-27T00:02:40;2.23;;;1.77;;
6217;SDS011;3142;48.206;11.550;2022-09-27T00:05:08;1.83;;;1.73;;
6217;SDS011;3142;48.206;11.550;2022-09-27T00:07:34;2.23;;;1.80;;
6217;SDS011;3142;48.206;11.550;2022-09-27T00:10:00;2.10;;;1.80;;
6217;SDS011;3142;48.206;11.550;2022-09-27T00:12:27;3.93;;;2.00;;
6217;SDS011;3142;48.206;11.550;2022-09-27T00:14:53;1.73;;;1.60;;
6217;SDS011;3142;48.206;11.550;2022-09-27T00:17:21;2.30;;;2.10;;
6217;SDS011;3142;48.206;11.550;2022-09-27T00:19:47;1.70;;;1.60;;
6217;SDS011;3142;48.206;11.550;2022-09-27T00:22:15;1.77;;;1.60;;
6217;SDS011;3142;48.206;11.550;2022-09-27T00:24:41;2.27;;;2.07;;
6217;SDS011;3142;48.206;11.550;2022-09-27T00:27:07;1.97;;;1.87;;
6217;SDS011;3142;48.206;11.550;2022-09-27T00:29:34;2.90;;;1.83;;
6217;SDS011;3142;48.206;11.550;2022-09-27T00:32:01;2.30;;;1.93;;
6217;SDS011;3142;48.206;11.550;2022-09-27T00:34:28;1.93;;;1.50;;
6217;SDS011;3142;48.206;11.550;2022-09-27T00:36:54;4.17;;;1.90;;
6217;SDS011;3142;48.206;11.550;2022-09-27T00:39:22;2.93;;;1.90;;
6217;SDS011;3142;48.206;11.550;2022-09-27T00:41:48;2.30;;;1.80;;
6217;SDS011;3142;48.206;11.550;2022-09-27T00:47:25;1.77;;;1.63;;
6217;SDS011;3142;48.206;11.550;2022-09-27T00:49:55;2.47;;;1.77;;
6217;SDS011;3142;48.206;11.550;2022-09-27T00:52:27;2.00;;;1.90;;
6217;SDS011;3142;48.206;11.550;2022-09-27T00:55:00;2.23;;;1.80;;
6217;SDS011;3142;48.206;11.550;2022-09-27T00:57:31;2.30;;;1.70;;
6217;SDS011;3142;48.206;11.550;2022-09-27T00:59:58;2.57;;;1.83;;
6217;SDS011;3142;48.206;11.550;2022-09-27T01:02:27;1.87;;;1.63;;
6217;SDS011;3142;48.206;11.550;2022-09-27T01:04:54;1.70;;;1.57;;
6217;SDS011;3142;48.206;11.550;2022-09-27T01:07:22;2.67;;;1.53;;
6217;SDS011;3142;48.206;11.550;2022-09-27T01:09:48;2.00;;;1.80;;
6217;SDS011;3142;48.206;11.550;2022-09-27T01:12:18;4.50;;;2.00;;
6217;SDS011;3142;48.206;11.550;2022-09-27T01:14:58;2.00;;;1.80;;
6217;SDS011;3142;48.206;11.550;2022-09-27T01:17:36;2.17;;;1.90;;
6217;SDS011;3142;48.206;11.550;2022-09-27T01:23:14;1.97;;;1.70;;
6217;SDS011;3142;48.206;11.550;2022-09-27T01:25:57;2.40;;;2.20;;
6217;SDS011;3142;48.206;11.550;2022-09-27T01:28:39;1.80;;;1.70;;
6217;SDS011;3142;48.206;11.550;2022-09-27T01:31:18;2.57;;;1.97;;
6217;SDS011;3142;48.206;11.550;2022-09-27T01:33:53;1.77;;;1.63;;
6217;SDS011;3142;48.206;11.550;2022-09-27T01:36:29;2.10;;;1.70;;
6217;SDS011;3142;48.206;11.550;2022-09-27T01:39:07;2.00;;;1.80;;
6217;SDS011;3142;48.206;11.550;2022-09-27T01:41:44;2.93;;;1.83;;
6217;SDS011;3142;48.206;11.550;2022-09-27T01:44:20;2.53;;;1.77;;
6217;SDS011;3142;48.206;11.550;2022-09-27T01:46:53;3.33;;;1.80;;
6217;SDS011;3142;48.206;11.550;2022-09-27T01:49:30;2.47;;;2.27;;
6217;SDS011;3142;48.206;11.550;2022-09-27T01:52:01;2.07;;;1.83;;
6217;SDS011;3142;48.206;11.550;2022-09-27T01:54:32;2.30;;;2.10;;
6217;SDS011;3142;48.206;11.550;2022-09-27T01:57:03;4.33;;;2.00;;
6217;SDS011;3142;48.206;11.550;2022-09-27T01:59:36;4.50;;;2.03;;
6217;SDS011;3142;48.206;11.550;2022-09-27T02:02:10;3.47;;;1.80;;
6217;SDS011;3142;48.206;11.550;2022-09-27T02:04:38;1.77;;;1.67;;
6217;SDS011;3142;48.206;11.550;2022-09-27T02:07:07;2.63;;;2.03;;
6217;SDS011;3142;48.206;11.550;2022-09-27T02:09:39;2.27;;;2.07;;
6217;SDS011;3142;48.206;11.550;2022-09-27T02:12:12;2.67;;;2.10;;
6217;SDS011;3142;48.206;11.550;2022-09-27T02:14:40;4.83;;;2.30;;
6217;SDS011;3142;48.206;11.550;2022-09-27T02:17:13;2.30;;;2.10;;
6217;SDS011;3142;48.206;11.550;2022-09-27T02:19:49;2.90;;;1.97;;
6217;SDS011;3142;48.206;11.550;2022-09-27T02:22:21;2.63;;;2.00;;
6217;SDS011;3142;48.206;11.550;2022-09-27T02:24:56;1.97;;;1.80;;
6217;SDS011;3142;48.206;11.550;2022-09-27T02:27:26;2.90;;;2.40;;
6217;SDS011;3142;48.206;11.550;2022-09-27T02:29:57;4.37;;;2.33;;
6217;SDS011;3142;48.206;11.550;2022-09-27T02:32:28;2.80;;;2.20;;
6217;SDS011;3142;48.206;11.550;2022-09-27T02:34:55;2.90;;;2.43;;
6217;SDS011;3142;48.206;11.550;2022-09-27T02:37:24;3.43;;;2.17;;
6217;SDS011;3142;48.206;11.550;2022-09-27T02:39:51;7.40;;;2.67;;
6217;SDS011;3142;48.206;11.550;2022-09-27T02:42:17;3.23;;;2.47;;
6217;SDS011;3142;48.206;11.550;2022-09-27T02:44:43;2.20;;;2.00;;
6217;SDS011;3142;48.206;11.550;2022-09-27T02:47:14;2.20;;;2.00;;
6217;SDS011;3142;48.206;11.550;2022-09-27T02:49:57;3.90;;;2.50;;
6217;SDS011;3142;48.206;11.550;2022-09-27T02:52:36;4.33;;;2.40;;
6217;SDS011;3142;48.206;11.550;2022-09-27T02:55:10;2.83;;;1.90;;
6217;SDS011;3142;48.206;11.550;2022-09-27T02:57:46;3.53;;;2.57;;
6217;SDS011;3142;48.206;11.550;2022-09-27T03:00:20;2.63;;;2.30;;
6217;SDS011;3142;48.206;11.550;2022-09-27T03:02:54;2.50;;;2.10;;
6217;SDS011;3142;48.206;11.550;2022-09-27T03:05:31;3.27;;;2.50;;
6217;SDS011;3142;48.206;11.550;2022-09-27T03:08:02;3.33;;;2.10;;
6217;SDS011;3142;48.206;11.550;2022-09-27T03:10:29;2.53;;;2.33;;
6217;SDS011;3142;48.206;11.550;2022-09-27T03:12:55;2.43;;;2.23;;
6217;SDS011;3142;48.206;11.550;2022-09-27T03:15:23;3.33;;;2.17;;
6217;SDS011;3142;48.206;11.550;2022-09-27T03:17:49;2.20;;;2.00;;
6217;SDS011;3142;48.206;11.550;2022-09-27T03:20:16;3.23;;;2.70;;
6217;SDS011;3142;48.206;11.550;2022-09-27T03:22:43;2.50;;;2.30;;
6217;SDS011;3142;48.206;11.550;2022-09-27T03:25:10;4.13;;;2.77;;
6217;SDS011;3142;48.206;11.550;2022-09-27T03:27:37;3.77;;;2.90;;
6217;SDS011;3142;48.206;11.550;2022-09-27T03:30:03;4.50;;;2.63;;
6217;SDS011;3142;48.206;11.550;2022-09-27T03:32:31;5.77;;;3.70;;
6217;SDS011;3142;48.206;11.550;2022-09-27T03:34:58;3.27;;;2.60;;
6217;SDS011;3142;48.206;11.550;2022-09-27T03:37:24;3.23;;;2.70;;
6217;SDS011;3142;48.206;11.550;2022-09-27T03:39:54;2.40;;;2.20;;
6217;SDS011;3142;48.206;11.550;2022-09-27T03:42:21;2.73;;;2.13;;
6217;SDS011;3142;48.206;11.550;2022-09-27T03:44:47;2.57;;;2.07;;
6217;SDS011;3142;48.206;11.550;2022-09-27T03:47:15;2.37;;;1.90;;
6217;SDS011;3142;48.206;11.550;2022-09-27T03:49:41;2.57;;;2.00;;
6217;SDS011;3142;48.206;11.550;2022-09-27T03:52:08;2.97;;;2.10;;
6217;SDS011;3142;48.206;11.550;2022-09-27T03:54:34;3.50;;;2.30;;
6217;SDS011;3142;48.206;11.550;2022-09-27T03:57:02;4.23;;;2.57;;
6217;SDS011;3142;48.206;11.550;2022-09-27T03:59:28;3.17;;;2.53;;
6217;SDS011;3142;48.206;11.550;2022-09-27T04:01:55;2.93;;;2.10;;
6217;SDS011;3142;48.206;11.550;2022-09-27T04:04:21;3.87;;;2.07;;
6217;SDS011;3142;48.206;11.550;2022-09-27T04:06:48;3.50;;;2.00;;
6217;SDS011;3142;48.206;11.550;2022-09-27T04:09:15;3.20;;;1.90;;
6217;SDS011;3142;48.206;11.550;2022-09-27T04:11:41;2.10;;;1.90;;
6217;SDS011;3142;48.206;11.550;2022-09-27T04:14:09;1.80;;;1.67;;
6217;SDS011;3142;48.206;11.550;2022-09-27T04:16:37;1.77;;;1.67;;
6217;SDS011;3142;48.206;11.550;2022-09-27T04:19:04;2.40;;;1.60;;
6217;SDS011;3142;48.206;11.550;2022-09-27T04:21:30;1.90;;;1.50;;
6217;SDS011;3142;48.206;11.550;2022-09-27T04:23:57;2.07;;;1.80;;
6217;SDS011;3142;48.206;11.550;2022-09-27T04:26:23;2.00;;;1.80;;
6217;SDS011;3142;48.206;11.550;2022-09-27T04:28:50;1.70;;;1.60;;
6217;SDS011;3142;48.206;11.550;2022-09-27T04:31:18;2.57;;;1.60;;
6217;SDS011;3142;48.206;11.550;2022-09-27T04:33:45;2.17;;;1.97;;
6217;SDS011;3142;48.206;11.550;2022-09-27T04:36:12;2.63;;;1.80;;
6217;SDS011;3142;48.206;11.550;2022-09-27T04:38:53;2.03;;;1.83;;
6217;SDS011;3142;48.206;11.550;2022-09-27T04:41:21;1.77;;;1.67;;
6217;SDS011;3142;48.206;11.550;2022-09-27T04:43:49;1.90;;;1.80;;
6217;SDS011;3142;48.206;11.550;2022-09-27T04:46:15;2.43;;;1.70;;
6217;SDS011;3142;48.206;11.550;2022-09-27T04:48:43;1.80;;;1.70;;
6217;SDS011;3142;48.206;11.550;2022-09-27T04:51:09;3.40;;;1.60;;
6217;SDS011;3142;48.206;11.550;2022-09-27T04:53:36;1.97;;;1.80;;
6217;SDS011;3142;48.206;11.550;2022-09-27T04:56:03;2.57;;;1.70;;
6217;SDS011;3142;48.206;11.550;2022-09-27T04:58:31;4.17;;;1.80;;
6217;SDS011;3142;48.206;11.550;2022-09-27T05:00:58;1.63;;;1.47;;
6217;SDS011;3142;48.206;11.550;2022-09-27T05:03:26;1.60;;;1.40;;
6217;SDS011;3142;48.206;11.550;2022-09-27T05:05:54;2.53;;;2.17;;
6217;SDS011;3142;48.206;11.550;2022-09-27T05:08:21;2.17;;;1.50;;
6217;SDS011;3142;48.206;11.550;2022-09-27T05:10:47;1.67;;;1.50;;
6217;SDS011;3142;48.206;11.550;2022-09-27T05:13:14;1.37;;;1.27;;
6217;SDS011;3142;48.206;11.550;2022-09-27T05:15:40;2.63;;;1.87;;
6217;SDS011;3142;48.206;11.550;2022-09-27T05:18:07;1.50;;;1.40;;
6217;SDS011;3142;48.206;11.550;2022-09-27T05:20:34;3.63;;;2.00;;
6217;SDS011;3142;48.206;11.550;2022-09-27T05:23:02;2.23;;;1.40;;
6217;SDS011;3142;48.206;11.550;2022-09-27T05:25:29;1.70;;;1.50;;
6217;SDS011;3142;48.206;11.550;2022-09-27T05:27:56;1.57;;;1.47;;
6217;SDS011;3142;48.206;11.550;2022-09-27T05:30:23;1.40;;;1.30;;
6217;SDS011;3142;48.206;11.550;2022-09-27T05:32:50;2.30;;;1.50;;
6217;SDS011;3142;48.206;11.550;2022-09-27T05:35:17;1.53;;;1.43;;
6217;SDS011;3142;48.206;11.550;2022-09-27T05:37:50;1.77;;;1.63;;
6217;SDS011;3142;48.206;11.550;2022-09-27T05:40:19;2.27;;;1.70;;
6217;SDS011;3142;48.206;11.550;2022-09-27T05:42:49;1.37;;;1.27;;
6217;SDS011;3142;48.206;11.550;2022-09-27T05:45:16;1.50;;;1.40;;
6217;SDS011;3142;48.206;11.550;2022-09-27T05:47:48;1.40;;;1.30;;
6217;SDS011;3142;48.206;11.550;2022-09-27T05:50:18;1.43;;;1.17;;
6217;SDS011;3142;48.206;11.550;2022-09-27T05:52:44;2.47;;;1.10;;
6217;SDS011;3142;48.206;11.550;2022-09-27T05:55:11;1.53;;;1.10;;
6217;SDS011;3142;48.206;11.550;2022-09-27T05:57:38;1.83;;;1.00;;
6217;SDS011;3142;48.206;11.550;2022-09-27T06:00:05;2.10;;;1.10;;
6217;SDS011;3142;48.206;11.550;2022-09-27T06:02:33;1.40;;;1.10;;
6217;SDS011;3142;48.206;11.550;2022-09-27T06:04:59;1.57;;;1.20;;
6217;SDS011;3142;48.206;11.550;2022-09-27T06:07:28;1.53;;;1.10;;
6217;SDS011;3142;48.206;11.550;2022-09-27T06:09:56;1.13;;;1.00;;
6217;SDS011;3142;48.206;11.550;2022-09-27T06:12:22;1.00;;;0.90;;
6217;SDS011;3142;48.206;11.550;2022-09-27T06:14:50;0.80;;;0.80;;
6217;SDS011;3142;48.206;11.550;2022-09-27T06:17:16;1.23;;;1.13;;
6217;SDS011;3142;48.206;11.550;2022-09-27T06:19:43;2.27;;;0.97;;
6217;SDS011;3142;48.206;11.550;2022-09-27T06:22:10;1.37;;;1.13;;
6217;SDS011;3142;48.206;11.550;2022-09-27T06:24:36;2.83;;;1.10;;
6217;SDS011;3142;48.206;11.550;2022-09-27T06:27:02;1.30;;;1.20;;
6217;SDS011;3142;48.206;11.550;2022-09-27T06:29:29;2.23;;;1.10;;
6217;SDS011;3142;48.206;11.550;2022-09-27T06:32:01;3.23;;;1.20;;
6217;SDS011;3142;48.206;11.550;2022-09-27T06:34:27;1.27;;;1.00;;
6217;SDS011;3142;48.206;11.550;2022-09-27T06:36:54;2.10;;;1.37;;
6217;SDS011;3142;48.206;11.550;2022-09-27T06:39:21;2.13;;;1.10;;
6217;SDS011;3142;48.206;11.550;2022-09-27T06:41:47;3.03;;;1.53;;
6217;SDS011;3142;48.206;11.550;2022-09-27T06:44:14;2.93;;;1.23;;
6217;SDS011;3142;48.206;11.550;2022-09-27T06:46:40;1.90;;;1.33;;
6217;SDS011;3142;48.206;11.550;2022-09-27T06:49:08;1.93;;;1.00;;
6217;SDS011;3142;48.206;11.550;2022-09-27T06:51:34;1.00;;;0.90;;
6217;SDS011;3142;48.206;11.550;2022-09-27T06:54:01;1.90;;;1.20;;
6217;SDS011;3142;48.206;11.550;2022-09-27T06:56:27;1.47;;;1.00;;
6217;SDS011;3142;48.206;11.550;2022-09-27T06:58:54;2.10;;;1.20;;
6217;SDS011;3142;48.206;11.550;2022-09-27T07:01:37;1.57;;;1.40;;
6217;SDS011;3142;48.206;11.550;2022-09-27T07:04:04;3.47;;;1.50;;
6217;SDS011;3142;48.206;11.550;2022-09-27T07:06:32;2.87;;;1.30;;
6217;SDS011;3142;48.206;11.550;2022-09-27T07:08:59;2.13;;;1.10;;
6217;SDS011;3142;48.206;11.550;2022-09-27T07:11:25;2.30;;;1.20;;
6217;SDS011;3142;48.206;11.550;2022-09-27T07:13:51;2.30;;;1.00;;
6217;SDS011;3142;48.206;11.550;2022-09-27T07:16:18;2.87;;;1.20;;
6217;SDS011;3142;48.206;11.550;2022-09-27T07:18:46;2.10;;;1.23;;
6217;SDS011;3142;48.206;11.550;2022-09-27T07:21:13;2.27;;;1.47;;
6217;SDS011;3142;48.206;11.550;2022-09-27T07:23:42;3.93;;;1.40;;
6217;SDS011;3142;48.206;11.550;2022-09-27T07:26:08;5.17;;;1.37;;
6217;SDS011;3142;48.206;11.550;2022-09-27T07:28:35;1.57;;;1.00;;
6217;SDS011;3142;48.206;11.550;2022-09-27T07:31:05;1.80;;;1.10;;
6217;SDS011;3142;48.206;11.550;2022-09-27T07:33:33;2.00;;;1.20;;
6217;SDS011;3142;48.206;11.550;2022-09-27T07:36:00;5.43;;;1.37;;
6217;SDS011;3142;48.206;11.550;2022-09-27T07:38:31;2.53;;;1.20;;
6217;SDS011;3142;48.206;11.550;2022-09-27T07:40:59;2.00;;;1.23;;
6217;SDS011;3142;48.206;11.550;2022-09-27T07:43:30;3.60;;;1.50;;
6217;SDS011;3142;48.206;11.550;2022-09-27T07:45:57;3.40;;;1.60;;
6217;SDS011;3142;48.206;11.550;2022-09-27T07:48:23;4.83;;;1.50;;
6217;SDS011;3142;48.206;11.550;2022-09-27T07:50:51;3.03;;;1.37;;
6217;SDS011;3142;48.206;11.550;2022-09-27T07:53:17;2.90;;;1.70;;
6217;SDS011;3142;48.206;11.550;2022-09-27T07:55:48;1.30;;;1.10;;
6217;SDS011;3142;48.206;11.550;2022-09-27T07:58:17;3.13;;;1.50;;
6217;SDS011;3142;48.206;11.550;2022-09-27T08:00:44;1.67;;;0.97;;
6217;SDS011;3142;48.206;11.550;2022-09-27T08:03:11;1.30;;;0.90;;
6217;SDS011;3142;48.206;11.550;2022-09-27T08:05:40;0.93;;;0.73;;
6217;SDS011;3142;48.206;11.550;2022-09-27T08:08:06;1.03;;;0.70;;
6217;SDS011;3142;48.206;11.550;2022-09-27T08:10:33;0.90;;;0.73;;
6217;SDS011;3142;48.206;11.550;2022-09-27T08:13:01;0.67;;;0.60;;
6217;SDS011;3142;48.206;11.550;2022-09-27T08:15:30;0.67;;;0.60;;
6217;SDS011;3142;48.206;11.550;2022-09-27T08:17:56;2.53;;;1.80;;
6217;SDS011;3142;48.206;11.550;2022-09-27T08:20:23;0.77;;;0.70;;
6217;SDS011;3142;48.206;11.550;2022-09-27T08:22:50;1.10;;;1.00;;
6217;SDS011;3142;48.206;11.550;2022-09-27T08:25:16;2.50;;;1.57;;
6217;SDS011;3142;48.206;11.550;2022-09-27T08:27:42;1.37;;;1.20;;
6217;SDS011;3142;48.206;11.550;2022-09-27T08:30:09;1.13;;;0.93;;
6217;SDS011;3142;48.206;11.550;2022-09-27T08:32:37;1.40;;;1.10;;
6217;SDS011;3142;48.206;11.550;2022-09-27T08:35:04;0.77;;;0.70;;
6217;SDS011;3142;48.206;11.550;2022-09-27T08:37:32;1.67;;;0.80;;
6217;SDS011;3142;48.206;11.550;2022-09-27T08:39:59;1.73;;;1.00;;
6217;SDS011;3142;48.206;11.550;2022-09-27T08:42:27;0.73;;;0.73;;
6217;SDS011;3142;48.206;11.550;2022-09-27T08:45:06;1.20;;;0.90;;
6217;SDS011;3142;48.206;11.550;2022-09-27T08:47:39;0.83;;;0.80;;
6217;SDS011;3142;48.206;11.550;2022-09-27T08:50:12;1.47;;;1.00;;
6217;SDS011;3142;48.206;11.550;2022-09-27T08:52:49;3.00;;;0.90;;
6217;SDS011;3142;48.206;11.550;2022-09-27T08:55:23;0.80;;;0.80;;
6217;SDS011;3142;48.206;11.550;2022-09-27T08:57:53;0.83;;;0.80;;
6217;SDS011;3142;48.206;11.550;2022-09-27T09:00:21;1.60;;;0.80;;
6217;SDS011;3142;48.206;11.550;2022-09-27T09:02:50;1.03;;;0.90;;
6217;SDS011;3142;48.206;11.550;2022-09-27T09:05:18;1.20;;;1.00;;
6217;SDS011;3142;48.206;11.550;2022-09-27T09:08:00;0.67;;;0.63;;
6217;SDS011;3142;48.206;11.550;2022-09-27T09:10:44;0.87;;;0.70;;
6217;SDS011;3142;48.206;11.550;2022-09-27T09:13:38;2.30;;;0.90;;
6217;SDS011;3142;48.206;11.550;2022-09-27T09:16:16;2.10;;;0.73;;
6217;SDS011;3142;48.206;11.550;2022-09-27T09:18:54;0.93;;;0.93;;
6217;SDS011;3142;48.206;11.550;2022-09-27T09:21:34;1.63;;;0.90;;
6217;SDS011;3142;48.206;11.550;2022-09-27T09:24:14;1.03;;;0.93;;
6217;SDS011;3142;48.206;11.550;2022-09-27T09:26:49;1.23;;;0.80;;
6217;SDS011;3142;48.206;11.550;2022-09-27T09:29:28;1.90;;;0.90;;
6217;SDS011;3142;48.206;11.550;2022-09-27T09:32:06;0.80;;;0.80;;
6217;SDS011;3142;48.206;11.550;2022-09-27T09:34:50;0.63;;;0.63;;
6217;SDS011;3142;48.206;11.550;2022-09-27T09:37:22;0.60;;;0.60;;
6217;SDS011;3142;48.206;11.550;2022-09-27T09:40:00;0.70;;;0.67;;
6217;SDS011;3142;48.206;11.550;2022-09-27T09:42:31;0.70;;;0.70;;
6217;SDS011;3142;48.206;11.550;2022-09-27T09:45:01;0.80;;;0.80;;
6217;SDS011;3142;48.206;11.550;2022-09-27T09:47:30;1.63;;;0.87;;
6217;SDS011;3142;48.206;11.550;2022-09-27T09:50:04;0.70;;;0.70;;
6217;SDS011;3142;48.206;11.550;2022-09-27T09:52:43;0.77;;;0.77;;
6217;SDS011;3142;48.206;11.550;2022-09-27T09:55:16;0.80;;;0.80;;
6217;SDS011;3142;48.206;11.550;2022-09-27T09:57:48;0.70;;;0.70;;
6217;SDS011;3142;48.206;11.550;2022-09-27T10:00:25;1.03;;;0.90;;
6217;SDS011;3142;48.206;11.550;2022-09-27T10:02:54;0.80;;;0.70;;
6217;SDS011;3142;48.206;11.550;2022-09-27T10:05:26;1.33;;;0.70;;
6217;SDS011;3142;48.206;11.550;2022-09-27T10:07:54;1.50;;;0.80;;
6217;SDS011;3142;48.206;11.550;2022-09-27T10:10:23;1.23;;;0.93;;
6217;SDS011;3142;48.206;11.550;2022-09-27T10:12:50;0.60;;;0.60;;
6217;SDS011;3142;48.206;11.550;2022-09-27T10:15:17;1.00;;;0.77;;
6217;SDS011;3142;48.206;11.550;2022-09-27T10:17:46;0.70;;;0.70;;
6217;SDS011;3142;48.206;11.550;2022-09-27T10:20:17;1.17;;;0.50;;
6217;SDS011;3142;48.206;11.550;2022-09-27T10:22:52;0.73;;;0.67;;
6217;SDS011;3142;48.206;11.550;2022-09-27T10:25:22;1.10;;;1.00;;
6217;SDS011;3142;48.206;11.550;2022-09-27T10:27:49;1.43;;;0.87;;
6217;SDS011;3142;48.206;11.550;2022-09-27T10:30:20;0.87;;;0.80;;
6217;SDS011;3142;48.206;11.550;2022-09-27T10:32:50;1.20;;;0.80;;
6217;SDS011;3142;48.206;11.550;2022-09-27T10:35:21;1.30;;;1.00;;
6217;SDS011;3142;48.206;11.550;2022-09-27T10:38:04;0.80;;;0.80;;
6217;SDS011;3142;48.206;11.550;2022-09-27T10:40:45;1.70;;;1.17;;
6217;SDS011;3142;48.206;11.550;2022-09-27T10:43:21;1.03;;;1.00;;
6217;SDS011;3142;48.206;11.550;2022-09-27T10:45:52;2.47;;;0.80;;
6217;SDS011;3142;48.206;11.550;2022-09-27T10:48:25;0.60;;;0.60;;
6217;SDS011;3142;48.206;11.550;2022-09-27T10:50:55;1.07;;;0.70;;
6217;SDS011;3142;48.206;11.550;2022-09-27T10:53:26;0.63;;;0.63;;
6217;SDS011;3142;48.206;11.550;2022-09-27T10:55:54;1.20;;;0.80;;
6217;SDS011;3142;48.206;11.550;2022-09-27T10:58:24;0.80;;;0.70;;
6217;SDS011;3142;48.206;11.550;2022-09-27T11:00:54;0.60;;;0.60;;
6217;SDS011;3142;48.206;11.550;2022-09-27T11:03:22;0.77;;;0.77;;
6217;SDS011;3142;48.206;11.550;2022-09-27T11:05:52;0.70;;;0.70;;
6217;SDS011;3142;48.206;11.550;2022-09-27T11:08:21;1.80;;;0.90;;
6217;SDS011;3142;48.206;11.550;2022-09-27T11:11:00;1.23;;;0.90;;
6217;SDS011;3142;48.206;11.550;2022-09-27T11:13:30;2.50;;;0.80;;
6217;SDS011;3142;48.206;11.550;2022-09-27T11:16:03;4.23;;;0.90;;
6217;SDS011;3142;48.206;11.550;2022-09-27T11:18:40;1.33;;;0.97;;
6217;SDS011;3142;48.206;11.550;2022-09-27T11:21:17;1.00;;;0.90;;
6217;SDS011;3142;48.206;11.550;2022-09-27T11:24:06;1.63;;;1.13;;
6217;SDS011;3142;48.206;11.550;2022-09-27T11:26:45;1.13;;;1.03;;
6217;SDS011;3142;48.206;11.550;2022-09-27T11:29:22;1.83;;;1.00;;
6217;SDS011;3142;48.206;11.550;2022-09-27T11:32:01;1.30;;;1.20;;
6217;SDS011;3142;48.206;11.550;2022-09-27T11:34:40;1.77;;;0.90;;
6217;SDS011;3142;48.206;11.550;2022-09-27T11:37:20;1.20;;;1.10;;
6217;SDS011;3142;48.206;11.550;2022-09-27T11:40:03;1.40;;;1.30;;
6217;SDS011;3142;48.206;11.550;2022-09-27T11:42:46;1.87;;;1.10;;
6217;SDS011;3142;48.206;11.550;2022-09-27T11:45:35;1.67;;;1.20;;
6217;SDS011;3142;48.206;11.550;2022-09-27T11:48:16;2.97;;;1.30;;
6217;SDS011;3142;48.206;11.550;2022-09-27T11:50:55;3.80;;;1.50;;
6217;SDS011;3142;48.206;11.550;2022-09-27T11:53:40;1.93;;;1.10;;
6217;SDS011;3142;48.206;11.550;2022-09-27T11:56:21;1.20;;;1.10;;
6217;SDS011;3142;48.206;11.550;2022-09-27T11:59:02;0.90;;;0.90;;
6217;SDS011;3142;48.206;11.550;2022-09-27T12:01:38;0.80;;;0.80;;
6217;SDS011;3142;48.206;11.550;2022-09-27T12:04:17;0.93;;;0.80;;
6217;SDS011;3142;48.206;11.550;2022-09-27T12:07:03;1.77;;;1.00;;
6217;SDS011;3142;48.206;11.550;2022-09-27T12:09:38;1.87;;;1.00;;
6217;SDS011;3142;48.206;11.550;2022-09-27T12:12:09;1.03;;;0.93;;
6217;SDS011;3142;48.206;11.550;2022-09-27T12:14:41;2.30;;;1.10;;
6217;SDS011;3142;48.206;11.550;2022-09-27T12:17:11;1.30;;;1.00;;
6217;SDS011;3142;48.206;11.550;2022-09-27T12:19:41;1.63;;;0.87;;
6217;SDS011;3142;48.206;11.550;2022-09-27T12:22:12;1.60;;;0.90;;
6217;SDS011;3142;48.206;11.550;2022-09-27T12:24:41;1.43;;;1.03;;
6217;SDS011;3142;48.206;11.550;2022-09-27T12:27:11;1.00;;;0.90;;
6217;SDS011;3142;48.206;11.550;2022-09-27T12:29:43;1.13;;;0.90;;
6217;SDS011;3142;48.206;11.550;2022-09-27T12:32:14;1.43;;;1.00;;
6217;SDS011;3142;48.206;11.550;2022-09-27T12:34:48;4.47;;;3.57;;
6217;SDS011;3142;48.206;11.550;2022-09-27T12:37:22;3.23;;;1.47;;
6217;SDS011;3142;48.206;11.550;2022-09-27T12:39:53;1.00;;;1.00;;
6217;SDS011;3142;48.206;11.550;2022-09-27T12:42:26;1.43;;;1.10;;
6217;SDS011;3142;48.206;11.550;2022-09-27T12:44:58;1.30;;;1.10;;
6217;SDS011;3142;48.206;11.550;2022-09-27T12:47:29;1.80;;;1.00;;
6217;SDS011;3142;48.206;11.550;2022-09-27T12:50:07;1.17;;;0.97;;
6217;SDS011;3142;48.206;11.550;2022-09-27T12:52:40;1.10;;;1.00;;
6217;SDS011;3142;48.206;11.550;2022-09-27T12:58:42;1.17;;;0.97;;
6217;SDS011;3142;48.206;11.550;2022-09-27T13:01:26;1.00;;;0.93;;
6217;SDS011;3142;48.206;11.550;2022-09-27T13:04:14;1.03;;;0.90;;
6217;SDS011;3142;48.206;11.550;2022-09-27T13:06:56;2.13;;;1.00;;
6217;SDS011;3142;48.206;11.550;2022-09-27T13:09:39;1.47;;;1.13;;
6217;SDS011;3142;48.206;11.550;2022-09-27T13:12:19;2.03;;;1.20;;
6217;SDS011;3142;48.206;11.550;2022-09-27T13:14:53;1.40;;;1.10;;
6217;SDS011;3142;48.206;11.550;2022-09-27T13:26:21;4.40;;;1.37;;
6217;SDS011;3142;48.206;11.550;2022-09-27T13:29:19;1.17;;;1.07;;
6217;SDS011;3142;48.206;11.550;2022-09-27T13:32:00;2.60;;;1.57;;
6217;SDS011;3142;48.206;11.550;2022-09-27T13:34:38;2.00;;;1.53;;
6217;SDS011;3142;48.206;11.550;2022-09-27T13:40:26;1.70;;;1.17;;
6217;SDS011;3142;48.206;11.550;2022-09-27T13:45:48;1.23;;;1.10;;
6217;SDS011;3142;48.206;11.550;2022-09-27T13:48:20;3.70;;;1.37;;
6217;SDS011;3142;48.206;11.550;2022-09-27T13:50:54;3.60;;;0.93;;
6217;SDS011;3142;48.206;11.550;2022-09-27T13:53:26;2.67;;;0.90;;
6217;SDS011;3142;48.206;11.550;2022-09-27T13:55:56;1.90;;;0.90;;
6217;SDS011;3142;48.206;11.550;2022-09-27T14:01:17;2.00;;;0.70;;
6217;SDS011;3142;48.206;11.550;2022-09-27T14:03:49;1.40;;;0.77;;
6217;SDS011;3142;48.206;11.550;2022-09-27T14:06:21;1.73;;;1.33;;
6217;SDS011;3142;48.206;11.550;2022-09-27T14:08:52;2.00;;;1.07;;
6217;SDS011;3142;48.206;11.550;2022-09-27T14:11:23;1.63;;;1.10;;
6217;SDS011;3142;48.206;11.550;2022-09-27T14:13:53;0.70;;;0.70;;
6217;SDS011;3142;48.206;11.550;2022-09-27T14:16:21;7.77;;;1.37;;
6217;SDS011;3142;48.206;11.550;2022-09-27T14:18:48;1.13;;;0.80;;
6217;SDS011;3142;48.206;11.550;2022-09-27T14:21:28;1.70;;;1.00;;
6217;SDS011;3142;48.206;11.550;2022-09-27T14:26:47;1.03;;;0.67;;
6217;SDS011;3142;48.206;11.550;2022-09-27T14:29:15;3.83;;;1.07;;
6217;SDS011;3142;48.206;11.550;2022-09-27T14:31:42;1.50;;;1.00;;
6217;SDS011;3142;48.206;11.550;2022-09-27T14:34:09;0.97;;;0.83;;
6217;SDS011;3142;48.206;11.550;2022-09-27T14:36:39;1.50;;;0.90;;
6217;SDS011;3142;48.206;11.550;2022-09-27T14:39:27;2.20;;;0.80;;
6217;SDS011;3142;48.206;11.550;2022-09-27T14:41:56;1.57;;;0.80;;
6217;SDS011;3142;48.206;11.550;2022-09-27T14:44:23;1.13;;;1.03;;
6217;SDS011;3142;48.206;11.550;2022-09-27T14:49:35;1.30;;;0.87;;
6217;SDS011;3142;48.206;11.550;2022-09-27T14:52:14;1.40;;;0.90;;
6217;SDS011;3142;48.206;11.550;2022-09-27T14:54:43;0.83;;;0.70;;
6217;SDS011;3142;48.206;11.550;2022-09-27T14:57:12;2.73;;;1.93;;
6217;SDS011;3142;48.206;11.550;2022-09-27T14:59:41;2.13;;;0.67;;
6217;SDS011;3142;48.206;11.550;2022-09-27T15:02:13;0.90;;;0.90;;
6217;SDS011;3142;48.206;11.550;2022-09-27T15:04:44;1.30;;;1.07;;
6217;SDS011;3142;48.206;11.550;2022-09-27T15:07:12;3.10;;;0.97;;
6217;SDS011;3142;48.206;11.550;2022-09-27T15:09:41;2.23;;;0.90;;
6217;SDS011;3142;48.206;11.550;2022-09-27T15:12:09;4.23;;;1.07;;
6217;SDS011;3142;48.206;11.550;2022-09-27T15:14:38;2.87;;;1.10;;
6217;SDS011;3142;48.206;11.550;2022-09-27T15:17:12;1.17;;;0.73;;
6217;SDS011;3142;48.206;11.550;2022-09-27T15:19:54;1.67;;;0.97;;
6217;SDS011;3142;48.206;11.550;2022-09-27T15:22:28;1.13;;;0.90;;
6217;SDS011;3142;48.206;11.550;2022-09-27T15:25:03;1.37;;;0.90;;
6217;SDS011;3142;48.206;11.550;2022-09-27T15:27:31;3.40;;;1.30;;
6217;SDS011;3142;48.206;11.550;2022-09-27T15:29:58;1.97;;;1.20;;
6217;SDS011;3142;48.206;11.550;2022-09-27T15:32:25;2.20;;;1.10;;
6217;SDS011;3142;48.206;11.550;2022-09-27T15:34:53;1.97;;;1.10;;
6217;SDS011;3142;48.206;11.550;2022-09-27T15:37:26;1.90;;;1.13;;
6217;SDS011;3142;48.206;11.550;2022-09-27T15:40:00;3.13;;;1.00;;
6217;SDS011;3142;48.206;11.550;2022-09-27T15:43:03;1.37;;;1.20;;
6217;SDS011;3142;48.206;11.550;2022-09-27T15:45:30;2.33;;;1.20;;
6217;SDS011;3142;48.206;11.550;2022-09-27T15:48:04;3.07;;;1.00;;
6217;SDS011;3142;48.206;11.550;2022-09-27T15:50:38;1.80;;;1.30;;
6217;SDS011;3142;48.206;11.550;2022-09-27T15:53:06;3.83;;;2.30;;
6217;SDS011;3142;48.206;11.550;2022-09-27T15:55:34;1.63;;;1.30;;